Time;durP1;ratioP1;P1;durP2;ratioP2;P2;SDS_P1;SDS_P2;PMS_P1;PMS_P2;Temp;Humidity;BMP_temperature;BMP_pressure;BME280_temperature;BME280_humidity;BME280_pressure;Samples;Min_cycle;Max_cycle;Signal;HPM_P1;HPM_P2
2022/04/14 00:02:21;;;;;;;9.73;4.13;;;;;;;;;;5102056;28;20024;-75
2022/04/14 00:04:47;;;;;;;7.68;3.85;;;;;;;;;;5107951;28;20216;-76
2022/04/14 00:07:13;;;;;;;5.88;3.95;;;;;;;;;;5102277;28;20032;-74
2022/04/14 00:09:41;;;;;;;5.60;3.72;;;;;;;;;;5109056;28;20031;-75
2022/04/14 00:12:08;;;;;;;7.47;3.85;;;;;;;;;;5104687;28;20044;-75
2022/04/14 00:17:37;;;;;;;7.20;3.67;;;;;;;;;;5108679;22;20512;-73
2022/04/14 00:20:06;;;;;;;9.80;4.30;;;;;;;;;;5080621;28;20063;-73
2022/04/14 00:22:32;;;;;;;6.97;4.00;;;;;;;;;;5080807;28;20160;-73
2022/04/14 00:24:58;;;;;;;7.25;3.95;;;;;;;;;;5086256;28;20480;-73
2022/04/14 00:27:24;;;;;;;6.10;4.15;;;;;;;;;;5077924;28;20024;-75
2022/04/14 00:29:50;;;;;;;7.88;4.10;;;;;;;;;;5085558;28;20056;-73
2022/04/14 00:32:16;;;;;;;11.52;3.78;;;;;;;;;;5086621;28;20031;-73
2022/04/14 00:34:43;;;;;;;8.60;3.97;;;;;;;;;;5087535;28;20036;-73
2022/04/14 00:37:10;;;;;;;7.60;3.47;;;;;;;;;;5085613;28;20070;-73
2022/04/14 00:39:37;;;;;;;6.85;3.60;;;;;;;;;;5080880;28;20485;-74
2022/04/14 00:42:09;;;;;;;6.07;3.60;;;;;;;;;;5090427;28;20020;-73
2022/04/14 00:44:35;;;;;;;7.45;3.20;;;;;;;;;;5089611;28;20434;-73
2022/04/14 00:47:01;;;;;;;6.45;3.50;;;;;;;;;;5089487;28;20537;-73
2022/04/14 00:49:28;;;;;;;10.45;3.95;;;;;;;;;;5082926;28;20044;-74
2022/04/14 00:51:54;;;;;;;7.03;3.33;;;;;;;;;;5078418;28;20505;-73
2022/04/14 00:54:20;;;;;;;8.18;3.60;;;;;;;;;;5088454;28;20053;-73
2022/04/14 00:56:46;;;;;;;8.52;3.80;;;;;;;;;;5081352;28;20016;-73
2022/04/14 00:59:12;;;;;;;9.00;3.58;;;;;;;;;;5085219;28;20042;-73
2022/04/14 01:01:38;;;;;;;8.73;3.88;;;;;;;;;;5088100;28;20032;-73
2022/04/14 01:04:05;;;;;;;8.10;4.10;;;;;;;;;;5088768;28;20024;-73
2022/04/14 01:06:31;;;;;;;8.05;4.53;;;;;;;;;;5084250;28;20028;-74
2022/04/14 01:11:44;;;;;;;6.57;4.00;;;;;;;;;;5078754;28;20543;-73
2022/04/14 01:14:27;;;;;;;7.93;4.13;;;;;;;;;;5086078;28;20082;-73
2022/04/14 01:16:54;;;;;;;8.45;4.38;;;;;;;;;;5085771;28;20028;-73
2022/04/14 01:19:20;;;;;;;7.97;4.15;;;;;;;;;;5085979;28;20063;-73
2022/04/14 01:21:47;;;;;;;6.68;3.30;;;;;;;;;;5090258;28;20602;-73
2022/04/14 01:24:14;;;;;;;8.82;4.13;;;;;;;;;;5086110;28;20021;-73
2022/04/14 01:26:40;;;;;;;9.75;4.25;;;;;;;;;;5084709;28;20090;-73
2022/04/14 01:29:06;;;;;;;13.00;4.70;;;;;;;;;;5084462;28;20123;-74
2022/04/14 01:31:33;;;;;;;8.25;3.78;;;;;;;;;;5083378;28;20067;-74
2022/04/14 01:33:59;;;;;;;7.75;3.63;;;;;;;;;;5091516;28;20035;-74
2022/04/14 01:36:25;;;;;;;10.63;4.47;;;;;;;;;;5088495;28;20024;-74
2022/04/14 01:38:51;;;;;;;9.15;4.75;;;;;;;;;;5081953;28;20043;-73
2022/04/14 01:41:17;;;;;;;9.63;4.35;;;;;;;;;;5089398;28;20016;-74
2022/04/14 01:43:43;;;;;;;7.75;4.55;;;;;;;;;;5092091;28;20389;-73
2022/04/14 01:46:09;;;;;;;8.25;3.60;;;;;;;;;;5073203;28;20546;-73
2022/04/14 01:48:38;;;;;;;7.05;3.75;;;;;;;;;;5088313;28;20051;-74
2022/04/14 01:51:05;;;;;;;7.97;3.85;;;;;;;;;;5087357;28;20047;-73
2022/04/14 01:53:31;;;;;;;5.43;3.40;;;;;;;;;;5086230;28;20048;-74
2022/04/14 01:55:57;;;;;;;7.25;3.80;;;;;;;;;;5063648;28;20103;-73
2022/04/14 01:58:23;;;;;;;7.22;3.70;;;;;;;;;;5083305;28;20063;-73
2022/04/14 02:00:49;;;;;;;11.10;3.65;;;;;;;;;;5086009;28;20480;-73
2022/04/14 02:03:15;;;;;;;7.75;3.90;;;;;;;;;;5088377;28;20110;-74
2022/04/14 02:05:41;;;;;;;11.48;4.00;;;;;;;;;;5082990;28;20048;-74
2022/04/14 02:08:07;;;;;;;11.30;4.65;;;;;;;;;;5086291;28;20028;-73
2022/04/14 02:10:33;;;;;;;9.30;4.15;;;;;;;;;;5087360;28;20024;-73
2022/04/14 02:12:59;;;;;;;9.15;4.38;;;;;;;;;;5087391;28;20038;-73
2022/04/14 02:15:25;;;;;;;8.45;4.20;;;;;;;;;;5083117;28;20063;-74
2022/04/14 02:17:51;;;;;;;7.03;4.38;;;;;;;;;;5082585;28;20472;-74
2022/04/14 02:20:17;;;;;;;9.77;4.97;;;;;;;;;;5081793;28;20040;-74
2022/04/14 02:22:43;;;;;;;6.65;4.25;;;;;;;;;;5064074;28;20640;-73
2022/04/14 02:25:09;;;;;;;12.10;4.50;;;;;;;;;;5083612;28;20023;-74
2022/04/14 02:27:35;;;;;;;8.48;4.18;;;;;;;;;;5076880;28;20024;-73
2022/04/14 02:30:02;;;;;;;10.50;4.18;;;;;;;;;;5085766;28;20032;-73
2022/04/14 02:32:28;;;;;;;8.77;3.92;;;;;;;;;;5086126;28;20031;-74
2022/04/14 02:34:54;;;;;;;9.02;4.38;;;;;;;;;;5086569;28;20035;-73
2022/04/14 02:37:20;;;;;;;7.78;3.78;;;;;;;;;;5079075;28;20028;-74
2022/04/14 02:39:46;;;;;;;8.15;4.22;;;;;;;;;;5086533;28;20548;-73
2022/04/14 02:42:12;;;;;;;11.90;4.90;;;;;;;;;;5069911;28;20028;-73
2022/04/14 02:44:38;;;;;;;9.57;3.70;;;;;;;;;;5079875;28;20378;-73
2022/04/14 02:47:04;;;;;;;6.00;3.45;;;;;;;;;;5084799;28;20047;-74
2022/04/14 02:49:30;;;;;;;7.57;4.22;;;;;;;;;;5081437;28;20055;-74
2022/04/14 02:51:56;;;;;;;8.23;3.95;;;;;;;;;;5075219;28;20481;-74
2022/04/14 02:54:22;;;;;;;7.88;3.75;;;;;;;;;;5086602;28;20127;-73
2022/04/14 02:56:48;;;;;;;6.82;4.10;;;;;;;;;;5063694;28;20052;-73
2022/04/14 02:59:14;;;;;;;17.45;4.57;;;;;;;;;;5086448;28;20079;-73
2022/04/14 03:01:40;;;;;;;6.30;3.80;;;;;;;;;;5071191;28;20473;-73
2022/04/14 03:04:06;;;;;;;10.20;4.00;;;;;;;;;;5088461;28;20481;-73
2022/04/14 03:06:32;;;;;;;9.88;4.00;;;;;;;;;;5077988;28;20063;-74
2022/04/14 03:08:58;;;;;;;6.63;3.60;;;;;;;;;;5083563;28;20028;-74
2022/04/14 03:11:24;;;;;;;8.82;3.72;;;;;;;;;;5079408;28;20039;-75
2022/04/14 03:13:50;;;;;;;5.90;3.42;;;;;;;;;;5083200;28;20474;-73
2022/04/14 03:16:16;;;;;;;7.07;3.50;;;;;;;;;;5085042;28;20044;-73
2022/04/14 03:18:42;;;;;;;10.02;4.47;;;;;;;;;;5087649;28;20074;-74
2022/04/14 03:21:11;;;;;;;9.80;3.60;;;;;;;;;;5090534;28;20066;-74
2022/04/14 03:23:37;;;;;;;8.88;4.20;;;;;;;;;;5083539;28;20035;-73
2022/04/14 03:26:03;;;;;;;7.57;4.13;;;;;;;;;;5087371;28;20506;-73
2022/04/14 03:28:30;;;;;;;5.05;3.42;;;;;;;;;;5088934;28;20027;-75
2022/04/14 03:30:55;;;;;;;6.97;4.00;;;;;;;;;;5087533;28;20031;-73
2022/04/14 03:33:21;;;;;;;7.53;3.78;;;;;;;;;;5081791;28;20024;-73
2022/04/14 03:35:48;;;;;;;8.27;4.10;;;;;;;;;;5082506;28;20437;-73
2022/04/14 03:38:14;;;;;;;10.35;4.47;;;;;;;;;;5084319;28;20028;-73
2022/04/14 03:40:40;;;;;;;14.82;4.43;;;;;;;;;;5081472;28;20039;-73
2022/04/14 03:43:05;;;;;;;7.65;4.38;;;;;;;;;;5094377;28;20388;-73
2022/04/14 03:45:31;;;;;;;6.85;4.10;;;;;;;;;;5074844;28;20017;-73
2022/04/14 03:47:57;;;;;;;9.45;4.95;;;;;;;;;;5066130;28;20023;-74
2022/04/14 03:50:23;;;;;;;6.43;3.75;;;;;;;;;;5071682;28;20056;-73
2022/04/14 03:56:00;;;;;;;11.57;4.05;;;;;;;;;;5006716;28;20112;-73
2022/04/14 03:58:26;;;;;;;18.95;4.57;;;;;;;;;;5080745;28;20024;-74
2022/04/14 04:00:52;;;;;;;9.88;4.55;;;;;;;;;;5079973;28;20070;-73
2022/04/14 04:03:19;;;;;;;8.52;4.75;;;;;;;;;;5085973;28;20055;-73
2022/04/14 04:05:45;;;;;;;12.40;4.80;;;;;;;;;;5079240;28;20035;-74
2022/04/14 04:08:11;;;;;;;9.95;4.03;;;;;;;;;;5074918;28;20021;-73
2022/04/14 04:10:37;;;;;;;8.50;4.00;;;;;;;;;;5082356;28;20393;-74
2022/04/14 04:13:03;;;;;;;5.63;3.50;;;;;;;;;;5080307;28;20123;-74
2022/04/14 04:15:29;;;;;;;5.80;3.83;;;;;;;;;;5080103;28;20033;-74
2022/04/14 04:17:55;;;;;;;11.20;4.43;;;;;;;;;;5078624;28;20036;-75
2022/04/14 04:20:21;;;;;;;12.18;4.28;;;;;;;;;;5088416;28;20028;-74
2022/04/14 04:22:47;;;;;;;6.72;4.22;;;;;;;;;;5058389;28;20072;-74
2022/04/14 04:25:13;;;;;;;12.10;4.25;;;;;;;;;;5079670;28;20024;-74
2022/04/14 04:27:39;;;;;;;8.80;3.88;;;;;;;;;;5082289;28;20119;-74
2022/04/14 04:30:06;;;;;;;8.82;4.10;;;;;;;;;;5083545;28;20415;-75
2022/04/14 04:32:35;;;;;;;22.15;4.43;;;;;;;;;;5063425;28;20040;-74
2022/04/14 04:35:02;;;;;;;10.32;4.45;;;;;;;;;;5088018;28;20532;-74
2022/04/14 04:37:28;;;;;;;10.25;4.70;;;;;;;;;;5082580;28;20028;-74
2022/04/14 04:39:54;;;;;;;7.57;4.43;;;;;;;;;;5088229;28;20036;-74
2022/04/14 04:42:20;;;;;;;11.50;4.68;;;;;;;;;;5086361;28;20024;-75
2022/04/14 04:44:46;;;;;;;13.35;4.28;;;;;;;;;;5084612;28;20031;-74
2022/04/14 04:47:12;;;;;;;8.10;4.78;;;;;;;;;;5092842;28;20092;-74
2022/04/14 04:49:38;;;;;;;9.30;4.45;;;;;;;;;;5087368;28;20480;-74
2022/04/14 04:52:04;;;;;;;8.65;4.38;;;;;;;;;;5087723;28;20024;-74
2022/04/14 04:54:30;;;;;;;9.23;4.55;;;;;;;;;;5081884;28;20034;-64
2022/04/14 04:56:56;;;;;;;14.27;4.90;;;;;;;;;;5083543;28;20024;-64
2022/04/14 04:59:23;;;;;;;12.38;4.65;;;;;;;;;;5088731;28;20035;-64
2022/04/14 05:01:49;;;;;;;12.77;4.30;;;;;;;;;;5083815;28;20025;-65
2022/04/14 05:04:15;;;;;;;13.75;4.30;;;;;;;;;;5086341;28;20039;-64
2022/04/14 05:06:41;;;;;;;10.55;4.28;;;;;;;;;;5089250;28;20039;-64
2022/04/14 05:09:07;;;;;;;6.45;3.88;;;;;;;;;;5089064;28;20101;-64
2022/04/14 05:11:34;;;;;;;8.10;4.53;;;;;;;;;;5084761;28;20099;-64
2022/04/14 05:14:00;;;;;;;9.32;4.72;;;;;;;;;;5085471;28;20048;-64
2022/04/14 05:16:26;;;;;;;10.73;4.13;;;;;;;;;;5079323;28;20405;-64
2022/04/14 05:18:52;;;;;;;10.57;4.32;;;;;;;;;;5084197;28;20495;-64
2022/04/14 05:21:18;;;;;;;13.20;4.28;;;;;;;;;;5082799;28;20027;-64
2022/04/14 05:23:44;;;;;;;9.50;4.63;;;;;;;;;;5082459;28;20095;-64
2022/04/14 05:26:10;;;;;;;13.77;4.10;;;;;;;;;;5089126;28;20477;-64
2022/04/14 05:28:36;;;;;;;16.23;4.63;;;;;;;;;;5081776;28;20036;-64
2022/04/14 05:31:02;;;;;;;5.35;3.88;;;;;;;;;;5082225;28;20043;-64
2022/04/14 05:33:28;;;;;;;7.22;3.85;;;;;;;;;;5087163;28;20420;-65
2022/04/14 05:35:55;;;;;;;7.72;4.00;;;;;;;;;;5085505;28;20075;-64
2022/04/14 05:38:21;;;;;;;9.48;4.72;;;;;;;;;;5081634;28;20024;-64
2022/04/14 05:40:47;;;;;;;7.30;3.88;;;;;;;;;;5087829;28;20040;-64
2022/04/14 05:43:19;;;;;;;9.50;4.25;;;;;;;;;;5085054;28;20032;-64
2022/04/14 05:45:48;;;;;;;8.50;4.10;;;;;;;;;;5083555;28;20020;-64
2022/04/14 05:48:14;;;;;;;7.10;3.92;;;;;;;;;;5082936;28;20492;-64
2022/04/14 05:50:41;;;;;;;12.65;4.65;;;;;;;;;;5086503;28;20432;-65
2022/04/14 05:53:07;;;;;;;12.65;4.45;;;;;;;;;;5083964;28;20322;-64
2022/04/14 05:55:33;;;;;;;8.70;3.70;;;;;;;;;;5087959;28;20112;-64
2022/04/14 05:58:00;;;;;;;7.13;3.90;;;;;;;;;;5086096;28;20438;-64
2022/04/14 06:00:26;;;;;;;17.00;4.68;;;;;;;;;;5088191;28;20381;-64
2022/04/14 06:02:52;;;;;;;10.70;4.47;;;;;;;;;;5082964;28;20474;-64
2022/04/14 06:05:18;;;;;;;7.03;4.18;;;;;;;;;;5090800;28;20119;-64
2022/04/14 06:07:44;;;;;;;7.57;4.65;;;;;;;;;;5083061;28;20023;-64
2022/04/14 06:10:10;;;;;;;12.43;4.82;;;;;;;;;;5091935;28;20259;-64
2022/04/14 06:12:36;;;;;;;13.25;4.68;;;;;;;;;;5084189;28;20362;-65
2022/04/14 06:15:02;;;;;;;11.70;4.75;;;;;;;;;;5090455;28;20028;-65
2022/04/14 06:17:28;;;;;;;7.47;4.35;;;;;;;;;;5084208;28;20505;-64
2022/04/14 06:30:50;;;;;;;9.35;5.35;;;;;;;;;;3338029;26;20501;-67
2022/04/14 06:33:20;;;;;;;13.25;4.80;;;;;;;;;;5091707;28;20373;-67
2022/04/14 06:35:48;;;;;;;11.73;4.97;;;;;;;;;;5075097;28;20036;-67
2022/04/14 06:38:14;;;;;;;11.45;5.47;;;;;;;;;;5074750;28;20040;-67
2022/04/14 06:40:40;;;;;;;15.18;5.78;;;;;;;;;;5074723;28;20377;-67
2022/04/14 06:43:06;;;;;;;16.30;5.13;;;;;;;;;;5074511;28;20043;-68
2022/04/14 06:45:32;;;;;;;12.90;5.38;;;;;;;;;;5092869;28;20484;-68
2022/04/14 06:47:59;;;;;;;12.02;5.40;;;;;;;;;;5066167;28;20111;-67
2022/04/14 06:50:26;;;;;;;12.52;5.28;;;;;;;;;;5074983;28;20020;-67
2022/04/14 06:52:52;;;;;;;10.57;5.45;;;;;;;;;;5074331;28;20092;-67
2022/04/14 06:55:21;;;;;;;15.00;5.70;;;;;;;;;;5073349;28;20063;-67
2022/04/14 06:57:47;;;;;;;15.35;6.03;;;;;;;;;;5092523;28;20019;-67
2022/04/14 07:00:13;;;;;;;15.10;4.90;;;;;;;;;;5092887;28;20436;-67
2022/04/14 07:02:46;;;;;;;11.68;5.65;;;;;;;;;;5092473;28;20056;-67
2022/04/14 07:05:12;;;;;;;17.80;4.97;;;;;;;;;;5081831;28;20042;-67
2022/04/14 07:07:39;;;;;;;18.70;5.57;;;;;;;;;;5091978;28;20073;-67
2022/04/14 07:10:05;;;;;;;15.23;5.63;;;;;;;;;;5092165;28;20035;-67
2022/04/14 07:12:31;;;;;;;11.93;5.72;;;;;;;;;;5092496;28;20016;-67
2022/04/14 07:15:01;;;;;;;13.27;5.05;;;;;;;;;;5103052;28;20092;-67
2022/04/14 07:17:28;;;;;;;10.07;5.05;;;;;;;;;;5077653;28;20470;-67
2022/04/14 07:19:55;;;;;;;18.85;5.18;;;;;;;;;;5057561;28;20566;-67
2022/04/14 07:22:21;;;;;;;9.57;5.35;;;;;;;;;;5073974;28;20024;-67
2022/04/14 07:24:48;;;;;;;13.23;5.90;;;;;;;;;;5075455;28;20036;-67
2022/04/14 07:27:15;;;;;;;11.93;5.38;;;;;;;;;;5074521;28;20028;-68
2022/04/14 07:29:41;;;;;;;15.90;6.55;;;;;;;;;;5064926;28;20028;-67
2022/04/14 07:32:07;;;;;;;18.65;6.38;;;;;;;;;;5091332;28;20020;-67
2022/04/14 07:34:34;;;;;;;17.15;5.63;;;;;;;;;;5091737;28;20040;-67
2022/04/14 07:37:00;;;;;;;10.68;5.38;;;;;;;;;;5073323;28;20130;-68
2022/04/14 07:39:26;;;;;;;15.40;6.07;;;;;;;;;;5075017;28;20024;-68
2022/04/14 07:42:29;;;;;;;11.82;5.68;;;;;;;;;;5093697;28;20050;-67
2022/04/14 08:12:50;;;;;;;17.83;6.20;;;;;;;;;;5091370;28;20512;-68
2022/04/14 08:15:16;;;;;;;21.60;6.40;;;;;;;;;;5067025;28;20035;-68
2022/04/14 08:17:43;;;;;;;16.40;5.85;;;;;;;;;;5094392;28;20021;-67
2022/04/14 08:20:13;;;;;;;14.57;5.60;;;;;;;;;;5082711;28;20373;-68
2022/04/14 08:22:45;;;;;;;24.13;5.85;;;;;;;;;;5064697;28;20058;-68
2022/04/14 08:25:13;;;;;;;15.43;6.63;;;;;;;;;;5082393;28;20122;-68
2022/04/14 08:27:39;;;;;;;13.25;6.72;;;;;;;;;;5072207;28;20548;-68
2022/04/14 08:30:05;;;;;;;18.67;7.10;;;;;;;;;;5074225;28;20093;-68
2022/04/14 08:32:38;;;;;;;14.63;6.57;;;;;;;;;;5080228;28;20031;-68
2022/04/14 08:35:22;;;;;;;13.93;6.55;;;;;;;;;;5092834;28;20042;-68
2022/04/14 08:41:03;;;;;;;16.80;6.57;;;;;;;;;;5092981;28;20114;-68
2022/04/14 08:43:34;;;;;;;16.48;6.25;;;;;;;;;;5069042;28;20400;-68
2022/04/14 08:46:00;;;;;;;;;;;;;;;;;;5072836;28;20515;-68
2022/04/14 08:48:27;;;;;;;16.98;6.53;;;;;;;;;;5089503;28;19904;-68
2022/04/14 08:50:53;;;;;;;18.60;6.78;;;;;;;;;;5080542;28;20025;-68
2022/04/14 08:53:19;;;;;;;12.65;7.00;;;;;;;;;;5084969;28;20062;-68
2022/04/14 08:55:45;;;;;;;16.85;7.50;;;;;;;;;;5076466;28;20472;-68
2022/04/14 08:58:15;;;;;;;12.77;7.10;;;;;;;;;;5089478;28;20031;-68
2022/04/14 09:00:42;;;;;;;18.23;6.60;;;;;;;;;;5063353;28;20461;-68
2022/04/14 09:03:08;;;;;;;17.27;6.25;;;;;;;;;;5090740;28;20024;-68
2022/04/14 09:05:34;;;;;;;16.02;7.00;;;;;;;;;;5090395;28;20024;-68
2022/04/14 09:08:02;;;;;;;15.07;6.07;;;;;;;;;;5069459;28;20028;-67
2022/04/14 09:10:28;;;;;;;14.30;6.20;;;;;;;;;;5072898;28;20111;-68
2022/04/14 09:12:54;;;;;;;17.48;6.75;;;;;;;;;;5071807;28;20012;-68
2022/04/14 09:15:20;;;;;;;27.70;5.93;;;;;;;;;;5065278;28;20035;-68
2022/04/14 09:17:47;;;;;;;13.38;6.68;;;;;;;;;;5077544;28;20063;-69
2022/04/14 09:20:36;;;;;;;13.60;6.95;;;;;;;;;;5086564;28;20512;-68
2022/04/14 09:23:20;;;;;;;15.88;5.93;;;;;;;;;;5088357;28;20025;-68
2022/04/14 09:25:47;;;;;;;17.35;7.05;;;;;;;;;;5087966;28;20024;-68
2022/04/14 09:37:32;;;;;;;13.07;6.25;;;;;;;;;;5077995;28;20028;-70
2022/04/14 09:40:08;;;;;;;17.83;6.20;;;;;;;;;;5094210;28;20032;-67
2022/04/14 09:42:40;;;;;;;16.73;7.43;;;;;;;;;;5095949;28;20038;-68
2022/04/14 09:45:19;;;;;;;21.23;8.88;;;;;;;;;;5083769;28;20038;-68
2022/04/14 09:47:45;;;;;;;18.38;7.32;;;;;;;;;;5108257;28;20051;-68
2022/04/14 09:50:27;;;;;;;17.35;8.00;;;;;;;;;;5112660;28;20043;-68
2022/04/14 09:52:57;;;;;;;15.88;7.28;;;;;;;;;;5100855;28;20025;-69
2022/04/14 09:55:23;;;;;;;15.85;8.00;;;;;;;;;;5105444;28;20114;-68
2022/04/14 09:58:27;;;;;;;18.40;8.80;;;;;;;;;;5108376;28;20107;-68
2022/04/14 10:00:58;;;;;;;21.70;8.73;;;;;;;;;;5032700;28;20096;-69
2022/04/14 10:03:25;;;;;;;19.77;7.82;;;;;;;;;;5038681;28;20116;-68
2022/04/14 10:05:53;;;;;;;15.30;8.45;;;;;;;;;;5046623;28;20598;-68
2022/04/14 10:08:25;;;;;;;16.52;8.88;;;;;;;;;;5046766;28;20061;-68
2022/04/14 10:11:04;;;;;;;21.33;7.22;;;;;;;;;;5031949;28;20041;-68
2022/04/14 10:13:37;;;;;;;12.65;6.55;;;;;;;;;;5013394;28;20025;-68
2022/04/14 10:16:03;;;;;;;15.73;5.35;;;;;;;;;;5037909;28;20538;-70
2022/04/14 10:18:31;;;;;;;16.58;6.13;;;;;;;;;;5034861;28;20024;-68
2022/04/14 10:20:57;;;;;;;15.73;6.05;;;;;;;;;;5040657;28;20155;-71
2022/04/14 10:23:23;;;;;;;15.55;6.10;;;;;;;;;;5042286;28;20559;-68
2022/04/14 10:25:50;;;;;;;19.70;7.55;;;;;;;;;;5052205;28;20528;-68
2022/04/14 10:28:17;;;;;;;14.23;6.10;;;;;;;;;;5111949;28;20030;-68
2022/04/14 10:30:55;;;;;;;16.77;6.68;;;;;;;;;;5096729;28;20020;-68
2022/04/14 10:33:21;;;;;;;11.50;4.32;;;;;;;;;;5092358;28;20012;-68
2022/04/14 10:35:51;;;;;;;14.90;5.35;;;;;;;;;;5073338;28;20028;-68
2022/04/14 10:38:27;;;;;;;11.68;4.97;;;;;;;;;;5103868;28;20035;-68
2022/04/14 10:40:57;;;;;;;12.55;4.53;;;;;;;;;;5099269;28;20085;-68
2022/04/14 10:43:24;;;;;;;13.18;5.35;;;;;;;;;;5090803;28;20039;-68
2022/04/14 10:45:51;;;;;;;11.13;4.47;;;;;;;;;;5082943;28;20024;-68
2022/04/14 10:48:44;;;;;;;11.27;3.97;;;;;;;;;;5061722;28;20020;-68
2022/04/14 10:51:19;;;;;;;10.85;4.90;;;;;;;;;;5094444;28;20032;-68
2022/04/14 10:53:49;;;;;;;11.95;4.68;;;;;;;;;;5098272;28;20465;-68
2022/04/14 10:56:33;;;;;;;12.63;5.35;;;;;;;;;;5098696;28;20036;-68
2022/04/14 10:59:00;;;;;;;11.73;5.63;;;;;;;;;;5091387;28;20058;-70
2022/04/14 11:01:47;;;;;;;13.10;5.28;;;;;;;;;;5073292;28;20017;-68
2022/04/14 11:04:23;;;;;;;13.38;5.70;;;;;;;;;;5099079;28;20061;-68
2022/04/14 11:06:51;;;;;;;13.05;4.50;;;;;;;;;;5079964;28;20086;-68
2022/04/14 11:09:36;;;;;;;13.73;5.38;;;;;;;;;;5072171;28;20024;-68
2022/04/14 11:12:02;;;;;;;12.40;4.93;;;;;;;;;;5091809;28;20028;-68
2022/04/14 11:14:28;;;;;;;12.23;4.63;;;;;;;;;;5101674;28;20124;-69
2022/04/14 11:16:54;;;;;;;11.88;5.18;;;;;;;;;;5103214;28;20110;-68
2022/04/14 11:19:21;;;;;;;10.65;4.47;;;;;;;;;;5090321;28;20549;-69
2022/04/14 11:22:07;;;;;;;11.38;4.88;;;;;;;;;;5089312;28;20093;-68
2022/04/14 11:24:36;;;;;;;17.38;5.30;;;;;;;;;;5083684;28;20032;-69
2022/04/14 11:27:12;;;;;;;11.85;5.28;;;;;;;;;;5082337;28;20027;-69
2022/04/14 11:29:39;;;;;;;10.50;5.53;;;;;;;;;;5095975;28;20016;-69
2022/04/14 11:32:05;;;;;;;17.05;5.72;;;;;;;;;;5109716;28;20023;-69
2022/04/14 11:34:35;;;;;;;13.65;6.07;;;;;;;;;;5090836;28;20032;-69
2022/04/14 11:37:21;;;;;;;15.07;5.88;;;;;;;;;;5089899;28;20024;-69
2022/04/14 11:40:07;;;;;;;14.48;5.30;;;;;;;;;;5071988;28;20438;-69
2022/04/14 11:42:35;;;;;;;13.25;5.80;;;;;;;;;;5080256;28;20039;-69
2022/04/14 11:45:10;;;;;;;18.85;6.10;;;;;;;;;;5089997;28;20032;-69
2022/04/14 11:47:37;;;;;;;22.73;6.03;;;;;;;;;;5105010;28;20052;-69
2022/04/14 11:50:06;;;;;;;13.65;5.53;;;;;;;;;;5100310;28;20076;-69
2022/04/14 11:52:38;;;;;;;10.57;5.30;;;;;;;;;;5102938;28;20032;-69
2022/04/14 11:55:07;;;;;;;16.73;5.93;;;;;;;;;;5096303;28;20040;-69
2022/04/14 11:57:37;;;;;;;12.02;5.57;;;;;;;;;;5098401;28;20141;-69
2022/04/14 12:00:29;;;;;;;10.57;4.40;;;;;;;;;;5089887;28;20030;-69
2022/04/14 12:02:59;;;;;;;14.32;5.20;;;;;;;;;;5106067;28;20076;-69
2022/04/14 12:05:25;;;;;;;14.52;5.05;;;;;;;;;;5111002;28;20099;-69
2022/04/14 12:08:04;;;;;;;12.55;5.35;;;;;;;;;;5103402;28;20104;-69
2022/04/14 12:10:30;;;;;;;15.40;4.57;;;;;;;;;;5097808;28;20031;-69
2022/04/14 12:13:05;;;;;;;15.63;4.35;;;;;;;;;;5094342;28;20043;-69
2022/04/14 12:15:31;;;;;;;20.90;5.47;;;;;;;;;;5089592;28;20061;-69
2022/04/14 12:18:07;;;;;;;14.13;4.82;;;;;;;;;;5102005;28;20451;-69
2022/04/14 12:20:37;;;;;;;18.38;5.00;;;;;;;;;;5097550;28;20020;-69
2022/04/14 12:23:03;;;;;;;12.45;4.45;;;;;;;;;;5097525;28;20031;-69
2022/04/14 12:25:30;;;;;;;13.07;4.68;;;;;;;;;;5077872;28;20472;-69
2022/04/14 12:27:56;;;;;;;13.20;5.40;;;;;;;;;;5084903;28;20031;-69
2022/04/14 12:30:23;;;;;;;21.65;5.75;;;;;;;;;;5108825;28;20031;-69
2022/04/14 12:32:49;;;;;;;21.65;5.30;;;;;;;;;;5109739;28;20011;-69
2022/04/14 12:35:31;;;;;;;14.75;4.70;;;;;;;;;;5105194;28;20480;-69
2022/04/14 12:38:11;;;;;;;11.52;4.30;;;;;;;;;;5096758;28;20024;-69
2022/04/14 12:40:37;;;;;;;15.43;4.72;;;;;;;;;;5109087;22;20087;-65
2022/04/14 12:43:06;;;;;;;9.68;3.85;;;;;;;;;;5060528;28;20496;-66
2022/04/14 12:45:37;;;;;;;15.52;3.60;;;;;;;;;;5059172;28;20025;-66
2022/04/14 12:48:05;;;;;;;11.23;3.70;;;;;;;;;;5060810;28;20050;-66
2022/04/14 12:50:31;;;;;;;12.27;3.47;;;;;;;;;;5056397;28;20106;-65
2022/04/14 12:52:57;;;;;;;19.30;3.85;;;;;;;;;;5055321;28;20401;-66
2022/04/14 12:55:24;;;;;;;12.50;3.70;;;;;;;;;;5068603;28;20521;-66
2022/04/14 12:57:55;;;;;;;15.75;4.65;;;;;;;;;;5061435;28;20021;-66
2022/04/14 13:00:21;;;;;;;14.40;4.07;;;;;;;;;;5071577;28;20043;-66
2022/04/14 13:03:01;;;;;;;8.07;3.65;;;;;;;;;;5057925;28;20029;-66
2022/04/14 13:05:28;;;;;;;7.70;3.90;;;;;;;;;;5052392;28;20028;-66
2022/04/14 13:07:55;;;;;;;6.97;3.25;;;;;;;;;;5059798;28;20159;-66
2022/04/14 13:10:29;;;;;;;11.10;4.50;;;;;;;;;;5069119;28;20115;-66
2022/04/14 13:12:56;;;;;;;17.13;4.75;;;;;;;;;;5061958;28;20016;-66
2022/04/14 13:15:22;;;;;;;13.50;4.20;;;;;;;;;;5066190;28;20163;-66
2022/04/14 13:17:48;;;;;;;8.23;4.72;;;;;;;;;;5064003;28;20546;-66
2022/04/14 13:20:16;;;;;;;14.10;4.95;;;;;;;;;;5053569;28;20104;-66
2022/04/14 13:22:42;;;;;;;17.42;4.32;;;;;;;;;;5063689;28;20100;-66
2022/04/14 13:25:08;;;;;;;17.08;3.95;;;;;;;;;;5063121;28;20033;-66
2022/04/14 13:27:35;;;;;;;17.90;4.60;;;;;;;;;;5058680;28;20037;-67
2022/04/14 13:30:01;;;;;;;13.05;4.03;;;;;;;;;;5060914;28;20025;-66
2022/04/14 13:32:27;;;;;;;13.55;4.13;;;;;;;;;;5060233;28;20025;-66
2022/04/14 13:34:54;;;;;;;11.38;4.68;;;;;;;;;;5051570;28;20091;-66
2022/04/14 13:37:20;;;;;;;9.32;3.50;;;;;;;;;;5063711;28;20025;-66
2022/04/14 13:39:46;;;;;;;15.98;3.65;;;;;;;;;;5053268;28;20636;-66
2022/04/14 13:42:12;;;;;;;8.38;3.30;;;;;;;;;;5064863;28;20032;-66
2022/04/14 13:44:38;;;;;;;7.88;3.47;;;;;;;;;;5051133;28;20049;-66
2022/04/14 13:47:04;;;;;;;10.93;3.33;;;;;;;;;;5051804;28;20025;-66
2022/04/14 13:49:30;;;;;;;10.73;3.55;;;;;;;;;;5055172;28;20017;-65
2022/04/14 13:51:56;;;;;;;6.80;3.63;;;;;;;;;;5063975;28;20094;-66
2022/04/14 13:54:22;;;;;;;12.23;3.15;;;;;;;;;;5063000;28;20523;-65
2022/04/14 13:56:48;;;;;;;15.45;3.17;;;;;;;;;;5063556;28;20116;-66
2022/04/14 13:59:14;;;;;;;14.48;3.45;;;;;;;;;;5072152;28;20024;-66
2022/04/14 14:01:40;;;;;;;11.05;4.18;;;;;;;;;;5062475;28;20025;-65
2022/04/14 14:04:06;;;;;;;8.80;3.88;;;;;;;;;;5071395;28;20112;-66
2022/04/14 14:06:32;;;;;;;8.38;2.95;;;;;;;;;;5070409;28;20078;-66
2022/04/14 14:08:58;;;;;;;9.27;3.30;;;;;;;;;;5071514;28;20424;-66
2022/04/14 14:11:24;;;;;;;13.13;3.72;;;;;;;;;;5053736;28;20021;-66
2022/04/14 14:13:50;;;;;;;15.55;5.65;;;;;;;;;;5060111;28;20025;-65
2022/04/14 14:16:17;;;;;;;9.65;3.78;;;;;;;;;;5068553;28;20120;-66
2022/04/14 14:18:43;;;;;;;7.28;3.22;;;;;;;;;;5059819;28;20009;-66
2022/04/14 14:21:10;;;;;;;10.43;3.15;;;;;;;;;;5059251;28;20596;-66
2022/04/14 14:23:36;;;;;;;6.05;3.10;;;;;;;;;;5059765;28;20040;-66
2022/04/14 14:26:02;;;;;;;10.27;2.80;;;;;;;;;;5059411;28;20029;-66
2022/04/14 14:28:28;;;;;;;9.07;2.50;;;;;;;;;;5061116;28;20041;-65
2022/04/14 14:30:55;;;;;;;11.70;3.10;;;;;;;;;;5064419;28;20013;-66
2022/04/14 14:33:21;;;;;;;17.02;3.33;;;;;;;;;;5061741;28;20033;-65
2022/04/14 14:35:46;;;;;;;9.73;2.90;;;;;;;;;;5065265;28;20052;-66
2022/04/14 14:38:13;;;;;;;12.02;3.58;;;;;;;;;;5062106;28;20029;-65
2022/04/14 14:40:39;;;;;;;10.07;3.55;;;;;;;;;;5058099;28;20463;-65
2022/04/14 14:43:05;;;;;;;12.63;3.03;;;;;;;;;;5058402;28;20481;-66
2022/04/14 14:45:31;;;;;;;8.55;2.65;;;;;;;;;;5067245;28;20059;-66
2022/04/14 14:47:57;;;;;;;14.07;3.53;;;;;;;;;;5056660;28;20060;-66
2022/04/14 14:50:23;;;;;;;4.60;2.67;;;;;;;;;;5062525;28;20551;-65
2022/04/14 14:52:51;;;;;;;8.85;2.80;;;;;;;;;;5061818;28;20043;-66
2022/04/14 14:55:17;;;;;;;17.80;3.90;;;;;;;;;;5062294;28;20048;-66
2022/04/14 15:00:28;;;;;;;8.60;3.00;;;;;;;;;;5068123;28;20078;-65
2022/04/14 15:02:55;;;;;;;10.85;3.40;;;;;;;;;;5064920;28;20017;-65
2022/04/14 15:05:22;;;;;;;9.38;4.55;;;;;;;;;;5070558;28;20036;-65
2022/04/14 15:07:51;;;;;;;7.63;2.97;;;;;;;;;;5064381;28;20024;-65
2022/04/14 15:10:18;;;;;;;5.53;4.10;;;;;;;;;;5060135;28;20040;-66
2022/04/14 15:12:44;;;;;;;14.60;3.78;;;;;;;;;;5045022;28;20044;-65
2022/04/14 15:15:10;;;;;;;14.88;4.72;;;;;;;;;;5065834;28;20052;-66
2022/04/14 15:17:36;;;;;;;8.32;4.20;;;;;;;;;;5058037;28;20036;-66
2022/04/14 15:20:02;;;;;;;9.15;3.40;;;;;;;;;;5060419;28;20504;-65
2022/04/14 15:22:28;;;;;;;11.40;3.25;;;;;;;;;;5068381;28;20024;-66
2022/04/14 15:24:54;;;;;;;9.30;3.55;;;;;;;;;;5058344;28;20128;-65
2022/04/14 15:27:20;;;;;;;10.95;4.53;;;;;;;;;;5061802;28;20028;-67
2022/04/14 15:29:46;;;;;;;15.82;4.40;;;;;;;;;;5057220;28;20059;-66
2022/04/14 15:32:12;;;;;;;7.63;4.10;;;;;;;;;;5065028;28;20492;-67
2022/04/14 15:34:38;;;;;;;21.95;3.92;;;;;;;;;;5057797;28;20116;-66
2022/04/14 15:37:05;;;;;;;13.27;4.30;;;;;;;;;;5056601;28;20100;-67
2022/04/14 15:39:31;;;;;;;18.10;4.53;;;;;;;;;;5069160;28;20056;-66
2022/04/14 15:41:57;;;;;;;8.63;4.35;;;;;;;;;;5055323;28;20083;-67
2022/04/14 15:44:23;;;;;;;9.43;4.07;;;;;;;;;;5063733;28;20020;-67